Time;durP1;ratioP1;P1;durP2;ratioP2;P2;SDS_P1;SDS_P2;PMS_P1;PMS_P2;Temp;Humidity;BMP_temperature;BMP_pressure;BME280_temperature;BME280_humidity;BME280_pressure;Samples;Min_cycle;Max_cycle;Signal;HPM_P1;HPM_P2
2021/12/06 00:00:55;;;;;;;4.57;3.97;;;1.60;99.90;;;;;;472127;250;28095;-76
2021/12/06 00:02:57;;;;;;;7.57;4.43;;;1.50;99.90;;;;;;472103;250;27411;-75
2021/12/06 00:04:58;;;;;;;4.93;3.90;;;1.60;99.90;;;;;;472092;251;27588;-76
2021/12/06 00:06:59;;;;;;;6.12;4.62;;;1.60;99.90;;;;;;472116;250;27431;-75
2021/12/06 00:09:00;;;;;;;4.32;3.60;;;1.60;99.90;;;;;;472129;250;27595;-76
2021/12/06 00:11:07;;;;;;;6.62;4.28;;;1.70;99.90;;;;;;472160;250;27565;-75
2021/12/06 00:13:03;;;;;;;4.25;3.85;;;1.80;99.90;;;;;;471848;252;27528;-75
2021/12/06 00:15:04;;;;;;;6.00;4.15;;;1.80;99.90;;;;;;472176;250;27573;-75
2021/12/06 00:17:06;;;;;;;4.47;3.85;;;1.90;99.90;;;;;;472185;250;27532;-76
2021/12/06 00:19:07;;;;;;;4.10;3.70;;;1.80;99.90;;;;;;472179;250;27549;-76
2021/12/06 00:21:08;;;;;;;4.25;3.75;;;1.70;99.90;;;;;;472124;250;27486;-75
2021/12/06 00:23:09;;;;;;;4.72;4.20;;;1.70;99.90;;;;;;472173;250;28054;-76
2021/12/06 00:25:10;;;;;;;3.87;3.22;;;1.70;99.90;;;;;;472189;251;27957;-75
2021/12/06 00:27:12;;;;;;;5.70;4.10;;;1.70;99.90;;;;;;472154;250;27966;-75
2021/12/06 00:29:13;;;;;;;3.72;3.20;;;1.80;99.90;;;;;;472159;250;28180;-75
2021/12/06 00:31:14;;;;;;;4.07;3.70;;;1.70;99.90;;;;;;472186;250;27529;-76
2021/12/06 00:33:15;;;;;;;4.37;3.60;;;1.70;99.90;;;;;;472184;250;27610;-75
2021/12/06 00:35:23;;;;;;;4.10;3.72;;;1.70;99.90;;;;;;472178;250;27552;-75
2021/12/06 00:37:29;;;;;;;3.72;3.25;;;1.60;99.90;;;;;;471962;252;27558;-75
2021/12/06 00:39:22;;;;;;;5.15;3.42;;;1.60;99.90;;;;;;471649;252;27523;-75
2021/12/06 00:41:23;;;;;;;3.97;3.58;;;1.70;99.90;;;;;;472151;251;27613;-75
2021/12/06 00:43:24;;;;;;;4.00;3.60;;;1.80;99.90;;;;;;472162;250;27606;-75
2021/12/06 00:45:26;;;;;;;4.62;3.97;;;1.80;99.90;;;;;;472147;250;27550;-76
2021/12/06 00:47:27;;;;;;;5.10;4.05;;;1.80;99.90;;;;;;472153;250;27578;-75
2021/12/06 00:49:28;;;;;;;4.95;3.90;;;1.70;99.90;;;;;;472171;251;27519;-75
2021/12/06 00:51:29;;;;;;;3.92;3.40;;;1.70;99.90;;;;;;472148;250;27921;-76
2021/12/06 00:53:31;;;;;;;4.22;3.53;;;1.70;99.90;;;;;;472098;251;27957;-75
2021/12/06 00:55:32;;;;;;;4.47;4.05;;;1.70;99.90;;;;;;472154;250;28101;-75
2021/12/06 00:57:33;;;;;;;4.00;3.60;;;1.70;99.90;;;;;;472132;250;29160;-75
2021/12/06 00:59:34;;;;;;;4.57;3.58;;;1.80;99.90;;;;;;472178;250;27498;-75
2021/12/06 01:01:36;;;;;;;4.40;3.45;;;1.70;99.90;;;;;;472161;251;27467;-76
2021/12/06 01:03:37;;;;;;;3.58;3.25;;;1.70;99.90;;;;;;472142;250;27522;-75
2021/12/06 01:05:38;;;;;;;3.80;3.40;;;1.70;99.90;;;;;;472152;250;27585;-75
2021/12/06 01:07:39;;;;;;;3.42;3.12;;;1.70;99.90;;;;;;472156;251;27473;-75
2021/12/06 01:09:41;;;;;;;3.72;3.30;;;1.70;99.90;;;;;;472173;250;27581;-75
2021/12/06 01:11:42;;;;;;;3.78;3.47;;;1.70;99.90;;;;;;472763;248;27543;-76
2021/12/06 01:13:43;;;;;;;4.80;3.80;;;1.70;99.90;;;;;;480239;246;27555;-75
2021/12/06 01:15:44;;;;;;;4.93;3.33;;;1.70;99.90;;;;;;495434;240;27413;-75
2021/12/06 01:17:46;;;;;;;3.80;3.50;;;1.70;99.90;;;;;;493855;240;27608;-74
2021/12/06 01:19:47;;;;;;;4.43;3.50;;;1.70;99.90;;;;;;493878;241;27940;-75
2021/12/06 01:21:57;;;;;;;4.28;3.12;;;1.60;99.90;;;;;;495463;240;27915;-75
2021/12/06 01:23:57;;;;;;;3.95;3.30;;;1.60;99.90;;;;;;493428;241;27905;-75
2021/12/06 01:26:13;;;;;;;3.40;3.10;;;1.50;99.90;;;;;;493582;241;27479;-75
2021/12/06 01:32:18;;;;;;;3.17;2.83;;;1.60;99.90;;;;;;490381;241;27533;-75
2021/12/06 01:39:10;;;;;;;5.20;3.53;;;1.60;99.90;;;;;;494854;240;27602;-75
2021/12/06 01:40:50;;;;;;;3.72;3.40;;;1.60;99.90;;;;;;495437;240;27458;-74
2021/12/06 01:42:51;;;;;;;3.40;3.10;;;1.50;99.90;;;;;;493898;240;27583;-75
2021/12/06 01:44:52;;;;;;;3.83;3.42;;;1.50;99.90;;;;;;493892;241;27479;-75
2021/12/06 01:46:54;;;;;;;3.25;2.95;;;1.50;99.90;;;;;;495471;240;27435;-76
2021/12/06 01:48:55;;;;;;;4.37;3.20;;;1.50;99.90;;;;;;493883;240;27867;-75
2021/12/06 01:50:56;;;;;;;3.47;3.17;;;1.40;99.90;;;;;;493868;241;27580;-75
2021/12/06 01:52:57;;;;;;;3.42;3.12;;;1.50;99.90;;;;;;495406;240;27418;-75
2021/12/06 01:54:59;;;;;;;3.62;3.33;;;1.40;99.90;;;;;;493841;240;27939;-75
2021/12/06 01:57:00;;;;;;;3.30;3.00;;;1.50;99.90;;;;;;493798;241;28029;-75
2021/12/06 01:59:01;;;;;;;4.72;3.12;;;1.50;99.90;;;;;;495408;240;27907;-74
2021/12/06 02:01:02;;;;;;;4.43;3.58;;;1.50;99.90;;;;;;493859;240;27965;-75
2021/12/06 02:03:04;;;;;;;4.55;3.95;;;1.50;99.90;;;;;;493847;241;27600;-75
2021/12/06 02:05:05;;;;;;;6.00;4.30;;;1.50;99.90;;;;;;495439;240;27459;-75
2021/12/06 02:07:06;;;;;;;4.75;4.18;;;1.40;99.90;;;;;;493864;241;27501;-75
2021/12/06 02:09:07;;;;;;;5.80;3.90;;;1.50;99.90;;;;;;493883;241;27557;-75
2021/12/06 02:11:09;;;;;;;4.72;3.72;;;1.50;99.90;;;;;;495429;240;27472;-75
2021/12/06 02:13:11;;;;;;;5.97;3.87;;;1.60;99.90;;;;;;493858;240;27513;-75
2021/12/06 02:15:33;;;;;;;5.30;3.85;;;1.60;99.90;;;;;;493844;241;27502;-75
2021/12/06 02:17:21;;;;;;;3.83;3.42;;;1.60;99.90;;;;;;494541;240;27516;-75
2021/12/06 02:19:19;;;;;;;4.50;3.90;;;1.70;99.90;;;;;;493585;241;27487;-75
2021/12/06 02:21:19;;;;;;;6.80;4.10;;;1.70;99.90;;;;;;493787;241;27507;-75
2021/12/06 02:23:19;;;;;;;4.30;3.78;;;1.70;99.90;;;;;;495424;240;27926;-75
2021/12/06 02:25:20;;;;;;;4.45;3.85;;;1.70;99.90;;;;;;493870;240;28388;-75
2021/12/06 02:27:22;;;;;;;4.18;3.62;;;1.80;99.90;;;;;;493868;241;28085;-75
2021/12/06 02:29:23;;;;;;;5.25;4.18;;;1.80;99.90;;;;;;495463;240;27371;-75
2021/12/06 02:31:24;;;;;;;4.05;3.65;;;1.80;99.90;;;;;;493831;240;27506;-75
2021/12/06 02:33:25;;;;;;;3.85;3.20;;;1.80;99.90;;;;;;493860;241;27618;-75
2021/12/06 02:35:27;;;;;;;3.80;3.50;;;1.80;99.90;;;;;;495433;240;27416;-75
2021/12/06 02:37:29;;;;;;;3.80;3.20;;;1.70;99.90;;;;;;493861;240;27500;-75
2021/12/06 02:39:30;;;;;;;4.43;3.40;;;1.60;99.90;;;;;;493840;241;27485;-75
2021/12/06 02:41:33;;;;;;;5.70;3.60;;;1.60;99.90;;;;;;495443;240;27432;-75
2021/12/06 02:43:34;;;;;;;4.12;3.45;;;1.60;99.90;;;;;;493779;241;27842;-75
2021/12/06 02:45:33;;;;;;;4.03;3.62;;;1.60;99.90;;;;;;493776;241;27540;-75
2021/12/06 02:47:34;;;;;;;3.90;2.95;;;1.70;99.90;;;;;;495395;240;27416;-75
2021/12/06 02:49:35;;;;;;;5.05;3.05;;;1.70;99.90;;;;;;493887;240;27528;-75
2021/12/06 02:51:37;;;;;;;4.62;3.78;;;1.70;99.90;;;;;;493865;241;27993;-75
2021/12/06 02:53:38;;;;;;;3.72;3.10;;;1.70;99.90;;;;;;495455;240;27831;-75
2021/12/06 02:55:40;;;;;;;3.67;3.33;;;1.70;99.90;;;;;;493873;240;28075;-75
2021/12/06 02:57:45;;;;;;;3.50;3.15;;;1.70;99.90;;;;;;493800;241;27489;-74
2021/12/06 02:59:42;;;;;;;3.62;3.30;;;1.70;99.90;;;;;;495223;240;27412;-75
2021/12/06 03:01:43;;;;;;;3.15;2.92;;;1.60;99.90;;;;;;493871;240;27609;-75
2021/12/06 03:03:44;;;;;;;4.20;3.33;;;1.60;99.90;;;;;;493878;241;27466;-75
2021/12/06 03:05:46;;;;;;;3.65;2.92;;;1.70;99.90;;;;;;495480;240;27504;-74
2021/12/06 03:07:52;;;;;;;3.40;3.10;;;1.70;99.90;;;;;;493873;240;27452;-75
2021/12/06 03:09:51;;;;;;;3.00;2.72;;;1.70;99.90;;;;;;493609;241;27502;-75
2021/12/06 03:11:49;;;;;;;4.20;3.12;;;1.80;99.90;;;;;;495308;240;27443;-75
2021/12/06 03:13:50;;;;;;;3.33;2.83;;;1.50;99.90;;;;;;493864;240;27575;-75
2021/12/06 03:15:52;;;;;;;3.45;3.10;;;1.40;99.90;;;;;;493871;241;27521;-75
2021/12/06 03:17:53;;;;;;;3.40;3.10;;;1.40;99.90;;;;;;495373;240;27384;-76
2021/12/06 03:19:54;;;;;;;3.28;2.97;;;1.50;99.90;;;;;;493779;240;28084;-75
2021/12/06 03:21:55;;;;;;;3.60;2.90;;;1.50;99.90;;;;;;493878;241;28193;-76
2021/12/06 03:23:57;;;;;;;2.95;2.55;;;1.50;99.90;;;;;;495439;240;27891;-75
2021/12/06 03:25:58;;;;;;;2.40;2.25;;;1.50;99.90;;;;;;493877;240;27521;-75
2021/12/06 03:27:59;;;;;;;2.40;2.20;;;1.50;99.90;;;;;;493871;241;27568;-74
2021/12/06 03:30:00;;;;;;;2.00;1.90;;;1.50;99.90;;;;;;495419;240;27411;-75
2021/12/06 03:32:02;;;;;;;2.85;2.65;;;1.50;99.90;;;;;;493830;241;27652;-76
2021/12/06 03:34:03;;;;;;;2.75;2.50;;;1.50;99.90;;;;;;493886;241;27573;-75
2021/12/06 03:36:04;;;;;;;2.33;2.12;;;1.50;99.90;;;;;;495437;240;27420;-74
2021/12/06 03:38:05;;;;;;;2.35;2.20;;;1.50;99.90;;;;;;493844;240;27514;-75
2021/12/06 03:40:07;;;;;;;2.70;2.50;;;1.50;99.90;;;;;;493853;241;27517;-75
2021/12/06 03:42:08;;;;;;;2.55;2.35;;;1.50;99.90;;;;;;495432;240;27408;-75
2021/12/06 03:44:09;;;;;;;2.30;2.08;;;1.50;99.90;;;;;;493869;240;27577;-75
2021/12/06 03:46:11;;;;;;;2.55;2.35;;;1.50;99.90;;;;;;493841;241;27636;-75
2021/12/06 03:48:12;;;;;;;2.75;2.55;;;1.40;99.90;;;;;;495403;240;27864;-75
2021/12/06 03:50:13;;;;;;;2.20;2.05;;;1.50;99.90;;;;;;493774;241;27973;-75
2021/12/06 03:52:14;;;;;;;2.17;2.00;;;1.50;99.90;;;;;;493778;241;28048;-75
2021/12/06 03:54:16;;;;;;;2.50;2.30;;;1.50;99.90;;;;;;495423;240;27995;-75
2021/12/06 03:56:17;;;;;;;2.37;2.22;;;1.50;99.90;;;;;;493816;240;27522;-75
2021/12/06 03:58:19;;;;;;;2.60;2.40;;;1.30;99.90;;;;;;493844;241;27598;-75
2021/12/06 04:00:19;;;;;;;2.60;2.40;;;1.30;99.90;;;;;;495377;240;27518;-75
2021/12/06 04:02:21;;;;;;;2.03;1.92;;;1.30;99.90;;;;;;493882;240;27499;-75
2021/12/06 04:04:22;;;;;;;2.25;2.05;;;1.20;99.90;;;;;;493860;241;27584;-74
2021/12/06 04:06:23;;;;;;;2.00;1.90;;;1.20;99.90;;;;;;495421;240;27474;-75
2021/12/06 04:08:25;;;;;;;2.03;1.92;;;1.20;99.90;;;;;;493884;240;27481;-75
2021/12/06 04:10:26;;;;;;;2.03;1.92;;;1.20;99.90;;;;;;493852;241;27510;-75
2021/12/06 04:12:27;;;;;;;2.28;2.17;;;1.10;99.90;;;;;;495412;240;27437;-75
2021/12/06 04:14:28;;;;;;;2.90;2.70;;;1.10;99.90;;;;;;493864;240;27568;-75
2021/12/06 04:16:29;;;;;;;2.50;2.40;;;1.20;99.90;;;;;;493870;241;27980;-75
2021/12/06 04:18:31;;;;;;;3.00;2.80;;;1.10;99.90;;;;;;495440;240;27936;-75
2021/12/06 04:20:32;;;;;;;3.20;3.00;;;1.10;99.90;;;;;;493854;241;28066;-75
2021/12/06 04:22:33;;;;;;;3.37;3.10;;;1.10;99.90;;;;;;493872;241;28584;-75
2021/12/06 04:24:34;;;;;;;3.92;3.62;;;1.10;99.90;;;;;;495470;240;27373;-75
2021/12/06 04:26:36;;;;;;;3.28;2.97;;;1.10;99.90;;;;;;493922;240;27608;-75
2021/12/06 04:28:42;;;;;;;2.95;2.75;;;1.20;99.90;;;;;;493863;241;27513;-75
2021/12/06 04:30:38;;;;;;;3.33;3.05;;;1.20;99.90;;;;;;495179;240;27405;-75
2021/12/06 04:32:39;;;;;;;3.35;3.05;;;1.20;99.90;;;;;;493890;240;27491;-74
2021/12/06 04:34:41;;;;;;;2.60;2.40;;;1.20;99.90;;;;;;493903;241;27505;-75
2021/12/06 04:36:42;;;;;;;2.80;2.60;;;1.10;99.90;;;;;;495447;240;27432;-75
2021/12/06 04:38:43;;;;;;;2.78;2.58;;;1.10;99.90;;;;;;493875;240;27490;-75
2021/12/06 04:40:44;;;;;;;2.75;2.55;;;1.10;99.90;;;;;;493832;241;27517;-75
2021/12/06 04:42:46;;;;;;;2.58;2.37;;;1.10;99.90;;;;;;492939;240;27463;-75
2021/12/06 04:44:47;;;;;;;2.20;2.10;;;1.20;99.90;;;;;;485197;245;28022;-75
2021/12/06 04:46:48;;;;;;;2.95;2.75;;;1.10;99.90;;;;;;485264;245;28126;-74
2021/12/06 04:48:49;;;;;;;2.95;2.67;;;1.10;99.90;;;;;;486773;244;27955;-75
2021/12/06 04:50:51;;;;;;;2.80;2.60;;;1.10;99.90;;;;;;485262;245;27992;-75
2021/12/06 04:52:52;;;;;;;2.40;2.15;;;1.10;99.90;;;;;;485246;245;27635;-75
2021/12/06 04:54:53;;;;;;;2.40;2.20;;;1.20;99.90;;;;;;486777;244;27589;-75
2021/12/06 04:56:54;;;;;;;2.37;2.17;;;1.20;99.90;;;;;;485237;245;27535;-75
2021/12/06 04:58:56;;;;;;;3.05;2.60;;;1.20;99.90;;;;;;485242;245;27529;-73
2021/12/06 05:00:57;;;;;;;2.30;2.20;;;1.20;99.90;;;;;;486765;244;27544;-72
2021/12/06 05:02:58;;;;;;;2.85;2.65;;;1.30;99.90;;;;;;485226;245;27517;-72
2021/12/06 05:04:59;;;;;;;3.10;2.90;;;1.30;99.90;;;;;;485259;245;27552;-74
2021/12/06 05:07:01;;;;;;;3.80;2.40;;;1.20;99.90;;;;;;486794;244;27624;-73
2021/12/06 05:09:02;;;;;;;2.53;2.33;;;1.20;99.90;;;;;;485185;245;27452;-75
2021/12/06 05:11:03;;;;;;;2.50;2.30;;;1.30;99.90;;;;;;485255;245;27564;-75
2021/12/06 05:13:04;;;;;;;2.22;2.12;;;1.30;99.90;;;;;;486729;244;27941;-75
2021/12/06 05:15:06;;;;;;;3.03;2.83;;;1.30;99.90;;;;;;485250;245;28004;-75
2021/12/06 05:17:07;;;;;;;2.50;2.30;;;1.20;99.90;;;;;;485291;243;28194;-74
2021/12/06 05:19:08;;;;;;;2.55;2.35;;;1.20;99.90;;;;;;486756;244;27514;-75
2021/12/06 05:21:09;;;;;;;2.78;2.58;;;1.30;99.90;;;;;;485266;245;27561;-75
2021/12/06 05:23:11;;;;;;;2.30;2.20;;;1.30;99.90;;;;;;485233;245;27595;-74
2021/12/06 05:25:13;;;;;;;2.72;2.42;;;1.30;99.90;;;;;;486775;244;27547;-75
2021/12/06 05:27:13;;;;;;;2.50;2.30;;;1.30;99.90;;;;;;485228;245;27633;-75
2021/12/06 05:29:14;;;;;;;3.00;2.45;;;1.30;99.90;;;;;;485284;245;27401;-74
2021/12/06 05:31:19;;;;;;;2.47;2.30;;;1.20;99.90;;;;;;486785;244;27540;-74
2021/12/06 05:33:28;;;;;;;2.40;2.20;;;1.20;99.90;;;;;;485086;245;27628;-74
2021/12/06 05:35:18;;;;;;;2.30;2.12;;;1.20;99.90;;;;;;484680;245;28180;-75
2021/12/06 05:37:19;;;;;;;3.03;2.83;;;1.20;99.90;;;;;;486789;244;28662;-75
2021/12/06 05:39:21;;;;;;;2.15;2.00;;;1.20;99.90;;;;;;485259;245;28013;-75
2021/12/06 05:41:22;;;;;;;2.25;2.05;;;1.20;99.90;;;;;;485256;245;28008;-74
2021/12/06 05:43:23;;;;;;;3.60;2.50;;;1.20;99.90;;;;;;486760;244;27485;-75
2021/12/06 05:45:24;;;;;;;3.05;2.45;;;1.20;99.90;;;;;;485233;245;27611;-74
2021/12/06 05:47:26;;;;;;;2.40;2.20;;;1.20;99.90;;;;;;485240;243;27493;-75
2021/12/06 05:49:27;;;;;;;1.90;1.80;;;1.20;99.90;;;;;;486761;244;27484;-75
2021/12/06 05:51:28;;;;;;;2.50;2.30;;;1.30;99.90;;;;;;485277;245;27545;-75
2021/12/06 05:53:29;;;;;;;3.15;2.30;;;1.30;99.90;;;;;;485267;245;27508;-75
2021/12/06 05:55:31;;;;;;;2.15;1.90;;;1.30;99.90;;;;;;486753;244;27539;-74
2021/12/06 05:57:32;;;;;;;2.15;2.00;;;1.30;99.90;;;;;;485238;245;27632;-75
2021/12/06 05:59:33;;;;;;;2.40;2.20;;;1.30;99.90;;;;;;485238;245;27628;-75
2021/12/06 06:01:34;;;;;;;2.75;2.50;;;1.30;99.90;;;;;;486766;244;27640;-75
2021/12/06 06:03:36;;;;;;;2.25;2.05;;;1.30;99.90;;;;;;485129;245;27947;-75
2021/12/06 06:05:37;;;;;;;2.25;2.05;;;1.20;99.90;;;;;;485250;245;28408;-76
2021/12/06 06:07:38;;;;;;;2.62;2.42;;;1.20;99.90;;;;;;486784;244;27941;-75
2021/12/06 06:09:39;;;;;;;2.65;2.45;;;1.20;99.90;;;;;;485249;245;28109;-75
2021/12/06 06:11:41;;;;;;;2.17;1.98;;;1.20;99.90;;;;;;485270;245;28088;-75
2021/12/06 06:13:42;;;;;;;2.45;2.17;;;1.20;99.90;;;;;;486772;244;27546;-75
2021/12/06 06:15:43;;;;;;;2.20;2.10;;;1.20;99.90;;;;;;485266;245;27528;-74
2021/12/06 06:17:47;;;;;;;2.37;2.17;;;1.20;99.90;;;;;;485259;245;27426;-75
2021/12/06 06:19:46;;;;;;;2.90;2.70;;;1.20;99.90;;;;;;486663;244;27619;-75
2021/12/06 06:21:47;;;;;;;2.80;2.60;;;1.30;99.90;;;;;;485257;245;27617;-75
2021/12/06 06:23:48;;;;;;;3.28;2.97;;;1.30;99.90;;;;;;485277;245;27425;-75
2021/12/06 06:25:49;;;;;;;3.20;2.90;;;1.30;99.90;;;;;;486767;244;27614;-75
2021/12/06 06:27:51;;;;;;;2.67;2.47;;;1.30;99.90;;;;;;485248;245;27497;-74
2021/12/06 06:29:52;;;;;;;2.80;2.60;;;1.30;99.90;;;;;;485284;245;27615;-75
2021/12/06 06:31:53;;;;;;;2.60;2.40;;;1.30;99.90;;;;;;486812;244;27475;-75
2021/12/06 06:33:54;;;;;;;3.05;2.85;;;1.40;99.90;;;;;;485281;245;28005;-75
2021/12/06 06:35:56;;;;;;;2.60;2.40;;;1.40;99.90;;;;;;485288;245;28045;-75
2021/12/06 06:37:57;;;;;;;2.62;2.42;;;1.40;99.90;;;;;;486788;244;29121;-75
2021/12/06 06:39:58;;;;;;;2.78;2.58;;;1.30;99.90;;;;;;485419;240;29074;-74
2021/12/06 06:41:59;;;;;;;3.20;2.90;;;1.30;99.90;;;;;;485135;245;27549;-74
2021/12/06 06:44:01;;;;;;;2.72;2.53;;;1.30;99.90;;;;;;486750;244;27531;-74
2021/12/06 06:46:02;;;;;;;3.08;2.80;;;1.30;99.90;;;;;;489162;240;27624;-74
2021/12/06 06:48:03;;;;;;;2.60;2.40;;;1.30;99.90;;;;;;490647;241;27572;-74
2021/12/06 06:50:04;;;;;;;2.85;2.65;;;1.30;99.90;;;;;;470335;253;27454;-74
2021/12/06 06:52:06;;;;;;;2.75;2.55;;;1.30;99.90;;;;;;476104;250;27521;-74
2021/12/06 06:54:07;;;;;;;2.75;2.55;;;1.30;99.90;;;;;;470319;253;28774;-74
2021/12/06 06:56:08;;;;;;;3.00;2.80;;;1.30;99.90;;;;;;476121;250;28134;-75
2021/12/06 06:58:09;;;;;;;2.58;2.47;;;1.30;99.90;;;;;;470373;253;27873;-74
2021/12/06 07:00:11;;;;;;;3.75;2.85;;;1.30;99.90;;;;;;476131;250;27677;-75
2021/12/06 07:02:12;;;;;;;4.12;2.92;;;1.30;99.90;;;;;;470365;253;27534;-74
2021/12/06 07:04:13;;;;;;;3.53;2.87;;;1.40;99.90;;;;;;476100;250;27577;-74
2021/12/06 07:06:14;;;;;;;4.35;2.90;;;1.40;99.90;;;;;;470290;253;27522;-75
2021/12/06 07:08:16;;;;;;;3.15;2.80;;;1.40;99.90;;;;;;476086;250;27557;-75
2021/12/06 07:10:17;;;;;;;2.92;2.62;;;1.50;99.90;;;;;;470235;252;27447;-74
2021/12/06 07:12:19;;;;;;;2.92;2.70;;;1.50;99.90;;;;;;476098;250;27654;-75
2021/12/06 07:14:19;;;;;;;2.67;2.45;;;1.50;99.90;;;;;;470409;253;27506;-74
2021/12/06 07:16:21;;;;;;;2.45;2.30;;;1.50;99.90;;;;;;476131;250;27643;-75
2021/12/06 07:18:22;;;;;;;2.85;2.65;;;1.50;99.90;;;;;;470263;253;27471;-75
2021/12/06 07:20:23;;;;;;;2.80;2.60;;;1.50;99.90;;;;;;476078;250;27575;-74
2021/12/06 07:22:24;;;;;;;3.70;3.22;;;1.50;99.90;;;;;;471571;248;28005;-74
2021/12/06 07:24:26;;;;;;;2.60;2.40;;;1.40;99.90;;;;;;472092;251;27976;-74
2021/12/06 07:26:27;;;;;;;2.75;2.55;;;1.40;99.90;;;;;;472143;250;28034;-74
2021/12/06 07:28:28;;;;;;;2.60;2.40;;;1.40;99.90;;;;;;472112;250;27412;-74
2021/12/06 07:30:29;;;;;;;2.85;2.65;;;1.50;99.90;;;;;;472036;251;27543;-74
2021/12/06 07:32:31;;;;;;;2.80;2.60;;;1.50;99.90;;;;;;472095;251;27459;-74
2021/12/06 07:34:32;;;;;;;3.55;2.30;;;1.50;99.90;;;;;;472127;250;27677;-75
2021/12/06 07:36:33;;;;;;;1.85;1.75;;;1.50;99.90;;;;;;468495;250;36129;-75
2021/12/06 07:38:38;;;;;;;2.78;2.58;;;1.50;99.90;;;;;;472131;251;27416;-75
2021/12/06 07:40:39;;;;;;;2.35;2.25;;;1.50;99.90;;;;;;472102;250;27658;-74
2021/12/06 07:42:40;;;;;;;2.42;2.30;;;1.60;99.90;;;;;;472019;251;27550;-74
2021/12/06 07:44:41;;;;;;;2.40;2.30;;;1.70;99.90;;;;;;472099;250;27573;-75
2021/12/06 07:46:42;;;;;;;2.53;2.33;;;1.70;99.90;;;;;;472057;251;27566;-74
2021/12/06 07:48:44;;;;;;;2.37;2.28;;;1.70;99.90;;;;;;472121;250;27541;-74
2021/12/06 07:50:45;;;;;;;2.33;2.22;;;1.70;99.90;;;;;;472100;251;27887;-75
2021/12/06 07:52:46;;;;;;;1.85;1.75;;;1.70;99.90;;;;;;472098;250;27583;-75
2021/12/06 07:54:47;;;;;;;2.50;2.30;;;1.80;99.90;;;;;;472038;251;28059;-74
2021/12/06 07:56:49;;;;;;;2.28;2.00;;;1.70;99.90;;;;;;472130;250;27992;-74
2021/12/06 07:58:50;;;;;;;2.10;1.90;;;1.70;99.90;;;;;;472095;250;28013;-74
2021/12/06 08:00:51;;;;;;;1.98;1.87;;;1.70;99.90;;;;;;472152;250;28037;-74
2021/12/06 08:02:52;;;;;;;2.60;2.40;;;1.80;99.90;;;;;;472120;250;27460;-74
2021/12/06 08:05:29;;;;;;;2.40;2.28;;;1.70;99.90;;;;;;472147;252;27531;-75
2021/12/06 08:06:55;;;;;;;2.17;2.08;;;1.80;99.90;;;;;;470603;252;27495;-75
2021/12/06 08:08:56;;;;;;;2.20;2.00;;;1.80;99.90;;;;;;472109;250;27555;-75
2021/12/06 08:10:57;;;;;;;1.87;1.77;;;1.90;99.90;;;;;;472150;250;27571;-74
2021/12/06 08:12:59;;;;;;;2.55;2.00;;;1.90;99.90;;;;;;472136;250;27501;-75
2021/12/06 08:15:00;;;;;;;1.85;1.75;;;1.90;99.90;;;;;;472130;250;27614;-75
2021/12/06 08:17:01;;;;;;;2.10;2.00;;;1.80;99.90;;;;;;472121;250;27492;-74
2021/12/06 08:19:03;;;;;;;2.53;2.30;;;1.90;99.90;;;;;;472439;247;27524;-74
2021/12/06 08:21:04;;;;;;;1.95;1.85;;;1.90;99.90;;;;;;485893;240;27633;-75
2021/12/06 08:23:05;;;;;;;1.90;1.80;;;1.90;99.90;;;;;;495366;240;27444;-74
2021/12/06 08:25:06;;;;;;;2.30;2.10;;;1.90;99.90;;;;;;493788;240;27513;-74
2021/12/06 08:27:08;;;;;;;1.92;1.83;;;2.00;99.90;;;;;;493835;241;27568;-74
2021/12/06 08:29:11;;;;;;;1.92;1.83;;;2.00;99.90;;;;;;495452;240;27385;-75
2021/12/06 08:31:10;;;;;;;2.05;1.95;;;2.10;99.90;;;;;;493774;241;27573;-74
2021/12/06 08:33:12;;;;;;;2.60;2.25;;;2.10;99.90;;;;;;493820;241;27466;-75
2021/12/06 08:35:13;;;;;;;2.03;1.92;;;2.10;99.90;;;;;;495327;240;27613;-75
2021/12/06 08:37:14;;;;;;;2.70;2.55;;;2.10;99.90;;;;;;493781;240;28563;-75
2021/12/06 08:39:15;;;;;;;2.75;2.55;;;2.10;99.90;;;;;;493831;241;28013;-75
2021/12/06 08:41:16;;;;;;;2.90;2.62;;;2.00;99.90;;;;;;495374;240;27963;-75
2021/12/06 08:43:19;;;;;;;2.97;2.60;;;2.10;99.90;;;;;;493822;240;27988;-75
2021/12/06 08:45:19;;;;;;;2.30;2.10;;;2.20;99.90;;;;;;493690;241;28037;-75
2021/12/06 08:47:20;;;;;;;3.05;2.80;;;2.20;99.90;;;;;;495400;240;27401;-75
2021/12/06 08:49:21;;;;;;;2.87;2.42;;;2.30;99.90;;;;;;493828;240;27621;-75
2021/12/06 08:51:23;;;;;;;2.90;2.70;;;2.30;99.90;;;;;;493806;241;27632;-75
2021/12/06 08:53:24;;;;;;;2.75;2.20;;;2.20;99.90;;;;;;495304;240;27444;-75
2021/12/06 08:55:25;;;;;;;2.67;2.50;;;2.30;99.90;;;;;;493782;240;27498;-75
2021/12/06 08:57:28;;;;;;;2.80;2.60;;;2.40;99.90;;;;;;493719;241;27556;-75
2021/12/06 08:59:29;;;;;;;2.17;2.08;;;2.40;99.90;;;;;;495363;240;27535;-74
2021/12/06 09:01:30;;;;;;;2.50;2.30;;;2.50;99.90;;;;;;493737;240;27517;-74
2021/12/06 09:03:34;;;;;;;2.62;2.42;;;2.50;99.90;;;;;;493767;241;27525;-76
2021/12/06 09:05:33;;;;;;;2.70;2.50;;;2.60;99.90;;;;;;495260;240;27982;-75
2021/12/06 09:07:34;;;;;;;2.70;2.50;;;2.60;99.90;;;;;;493701;240;28011;-75
2021/12/06 09:09:35;;;;;;;3.17;2.50;;;2.60;99.90;;;;;;493598;241;28035;-75
2021/12/06 09:11:36;;;;;;;2.45;2.25;;;2.50;99.90;;;;;;495286;240;27893;-74
2021/12/06 09:13:38;;;;;;;3.00;2.58;;;2.50;99.90;;;;;;493752;240;27480;-74
2021/12/06 09:15:39;;;;;;;3.25;2.95;;;2.50;99.90;;;;;;493779;241;27584;-74
2021/12/06 09:17:40;;;;;;;2.90;2.65;;;2.50;99.90;;;;;;495286;240;27460;-75
2021/12/06 09:19:41;;;;;;;3.20;2.87;;;2.50;99.90;;;;;;488949;240;27619;-75
2021/12/06 09:21:43;;;;;;;2.92;2.72;;;2.50;99.90;;;;;;493139;240;27580;-77
2021/12/06 09:23:44;;;;;;;3.28;2.97;;;2.60;99.90;;;;;;493775;241;27402;-76
2021/12/06 09:25:45;;;;;;;3.30;3.00;;;2.60;99.90;;;;;;495356;240;27519;-74
2021/12/06 09:27:46;;;;;;;3.53;2.90;;;2.70;99.90;;;;;;494049;240;27522;-75
2021/12/06 09:29:48;;;;;;;3.30;3.00;;;2.60;99.90;;;;;;492329;240;27483;-75
2021/12/06 09:31:49;;;;;;;3.12;2.85;;;2.60;99.90;;;;;;476101;249;27926;-74
2021/12/06 09:33:50;;;;;;;3.22;2.92;;;2.60;99.90;;;;;;476091;250;28065;-75
2021/12/06 09:35:54;;;;;;;2.65;2.50;;;2.60;99.90;;;;;;476093;250;28075;-75
2021/12/06 09:37:53;;;;;;;3.10;2.87;;;2.60;99.90;;;;;;475994;250;28029;-75
2021/12/06 09:39:56;;;;;;;3.10;2.50;;;2.70;99.90;;;;;;476136;250;28125;-75
2021/12/06 09:41:55;;;;;;;2.78;2.47;;;2.80;99.90;;;;;;476042;250;27640;-75
2021/12/06 09:43:56;;;;;;;2.70;2.50;;;2.80;99.90;;;;;;476159;250;27584;-75
2021/12/06 09:45:58;;;;;;;2.80;2.55;;;2.80;99.90;;;;;;475995;250;27531;-75
2021/12/06 09:48:00;;;;;;;2.70;2.50;;;2.80;99.90;;;;;;476103;250;27491;-75
2021/12/06 09:50:00;;;;;;;3.55;3.25;;;2.80;99.90;;;;;;476097;250;27625;-75
2021/12/06 09:52:01;;;;;;;3.20;2.90;;;2.80;99.90;;;;;;476133;250;27948;-75
2021/12/06 09:54:03;;;;;;;3.22;2.95;;;2.80;99.90;;;;;;476143;250;27553;-75
2021/12/06 09:56:04;;;;;;;3.30;2.95;;;2.80;99.90;;;;;;476151;250;27539;-75
2021/12/06 09:58:05;;;;;;;3.87;3.15;;;2.70;99.90;;;;;;476076;250;27953;-75
2021/12/06 10:00:06;;;;;;;5.03;3.90;;;2.80;99.90;;;;;;476073;250;28178;-75
2021/12/06 10:02:08;;;;;;;7.00;4.60;;;2.80;99.90;;;;;;475989;250;28118;-74
2021/12/06 10:04:11;;;;;;;6.22;4.85;;;2.90;99.90;;;;;;475876;250;29121;-75
2021/12/06 10:06:11;;;;;;;5.85;4.65;;;2.70;99.90;;;;;;476072;250;29112;-75
2021/12/06 10:08:11;;;;;;;5.80;5.20;;;2.60;99.90;;;;;;476163;250;27577;-74
2021/12/06 10:10:13;;;;;;;4.20;3.80;;;2.60;99.90;;;;;;476187;250;27617;-75
2021/12/06 10:12:16;;;;;;;4.53;4.10;;;2.70;99.90;;;;;;476172;250;27522;-74
2021/12/06 10:14:15;;;;;;;4.80;4.35;;;2.60;99.90;;;;;;476126;250;27553;-75
2021/12/06 10:16:16;;;;;;;5.20;4.15;;;2.70;99.90;;;;;;476133;250;27533;-74
2021/12/06 10:18:19;;;;;;;5.22;4.30;;;2.60;99.90;;;;;;476161;250;27502;-75
2021/12/06 10:20:19;;;;;;;5.20;3.97;;;2.60;99.90;;;;;;476076;250;27548;-74
2021/12/06 10:22:21;;;;;;;5.30;3.70;;;2.60;99.90;;;;;;476149;250;27582;-75
2021/12/06 10:24:22;;;;;;;4.80;4.03;;;2.70;99.90;;;;;;476133;250;27539;-75
2021/12/06 10:26:23;;;;;;;5.07;4.45;;;2.70;99.90;;;;;;476158;250;27647;-74
2021/12/06 10:28:25;;;;;;;5.60;4.10;;;2.60;99.90;;;;;;476136;250;28107;-74
2021/12/06 10:30:25;;;;;;;6.57;4.53;;;2.70;99.90;;;;;;476120;250;28020;-74
2021/12/06 10:32:26;;;;;;;4.20;3.80;;;2.80;99.90;;;;;;476136;250;28135;-75
2021/12/06 10:34:29;;;;;;;4.75;4.12;;;2.90;99.90;;;;;;476183;250;28091;-75
2021/12/06 10:36:29;;;;;;;4.97;3.62;;;2.90;99.90;;;;;;476118;250;27575;-75
2021/12/06 10:38:32;;;;;;;5.90;3.78;;;2.90;99.90;;;;;;476157;250;27493;-74
2021/12/06 10:40:31;;;;;;;4.03;3.60;;;3.00;99.90;;;;;;476086;250;27525;-75
2021/12/06 10:42:33;;;;;;;4.35;3.95;;;3.00;99.90;;;;;;476145;250;27552;-74
2021/12/06 10:44:34;;;;;;;4.40;3.85;;;3.00;99.90;;;;;;476157;250;27613;-75
2021/12/06 10:46:35;;;;;;;3.67;3.33;;;3.10;99.90;;;;;;476141;250;27636;-75
2021/12/06 10:48:36;;;;;;;4.45;3.62;;;3.00;99.90;;;;;;476131;250;27580;-75